sensor_id;sensor_type;location;lat;lon;timestamp;P1;durP1;ratioP1;P2;durP2;ratioP2
62289;SDS011;48284;46.828;29.480;2022-09-03T00:01:52;2.42;;;1.65;;
62289;SDS011;48284;46.828;29.480;2022-09-03T00:04:27;2.33;;;1.30;;
62289;SDS011;48284;46.828;29.480;2022-09-03T00:07:05;2.90;;;1.35;;
62289;SDS011;48284;46.828;29.480;2022-09-03T00:09:40;1.88;;;1.35;;
62289;SDS011;48284;46.828;29.480;2022-09-03T00:12:15;1.48;;;1.10;;
62289;SDS011;48284;46.828;29.480;2022-09-03T00:14:47;1.77;;;1.40;;
62289;SDS011;48284;46.828;29.480;2022-09-03T00:17:21;3.00;;;1.42;;
62289;SDS011;48284;46.828;29.480;2022-09-03T00:19:55;1.90;;;1.27;;
62289;SDS011;48284;46.828;29.480;2022-09-03T00:22:29;2.00;;;1.35;;
62289;SDS011;48284;46.828;29.480;2022-09-03T00:25:02;2.05;;;1.33;;
62289;SDS011;48284;46.828;29.480;2022-09-03T00:27:38;1.33;;;1.20;;
62289;SDS011;48284;46.828;29.480;2022-09-03T00:30:09;1.40;;;1.10;;
62289;SDS011;48284;46.828;29.480;2022-09-03T00:32:43;2.08;;;1.27;;
62289;SDS011;48284;46.828;29.480;2022-09-03T00:35:16;2.53;;;1.50;;
62289;SDS011;48284;46.828;29.480;2022-09-03T00:37:49;1.52;;;1.13;;
62289;SDS011;48284;46.828;29.480;2022-09-03T00:40:26;2.40;;;1.20;;
62289;SDS011;48284;46.828;29.480;2022-09-03T00:43:05;1.77;;;1.33;;
62289;SDS011;48284;46.828;29.480;2022-09-03T00:48:18;1.63;;;1.13;;
62289;SDS011;48284;46.828;29.480;2022-09-03T00:51:07;1.17;;;1.00;;
62289;SDS011;48284;46.828;29.480;2022-09-03T00:56:23;2.80;;;1.27;;
62289;SDS011;48284;46.828;29.480;2022-09-03T00:59:11;1.58;;;1.00;;
62289;SDS011;48284;46.828;29.480;2022-09-03T01:01:52;0.80;;;0.80;;
62289;SDS011;48284;46.828;29.480;2022-09-03T01:04:34;2.00;;;1.10;;
62289;SDS011;48284;46.828;29.480;2022-09-03T01:07:14;1.30;;;1.08;;
62289;SDS011;48284;46.828;29.480;2022-09-03T01:09:52;2.03;;;1.10;;
62289;SDS011;48284;46.828;29.480;2022-09-03T01:12:32;1.42;;;1.05;;
62289;SDS011;48284;46.828;29.480;2022-09-03T01:15:16;1.65;;;1.10;;
62289;SDS011;48284;46.828;29.480;2022-09-03T01:17:54;1.90;;;1.20;;
62289;SDS011;48284;46.828;29.480;2022-09-03T01:20:43;1.67;;;1.05;;
62289;SDS011;48284;46.828;29.480;2022-09-03T01:26:27;1.15;;;0.90;;
62289;SDS011;48284;46.828;29.480;2022-09-03T01:29:11;1.50;;;1.13;;
62289;SDS011;48284;46.828;29.480;2022-09-03T01:31:49;1.23;;;1.08;;
62289;SDS011;48284;46.828;29.480;2022-09-03T01:34:30;1.67;;;1.00;;
62289;SDS011;48284;46.828;29.480;2022-09-03T01:37:11;1.02;;;0.82;;
62289;SDS011;48284;46.828;29.480;2022-09-03T01:39:48;1.20;;;0.82;;
62289;SDS011;48284;46.828;29.480;2022-09-03T01:42:31;1.60;;;0.80;;
62289;SDS011;48284;46.828;29.480;2022-09-03T01:45:13;1.35;;;1.10;;
62289;SDS011;48284;46.828;29.480;2022-09-03T01:47:53;1.17;;;0.80;;
62289;SDS011;48284;46.828;29.480;2022-09-03T01:50:36;1.33;;;0.90;;
62289;SDS011;48284;46.828;29.480;2022-09-03T01:53:14;1.25;;;0.77;;
62289;SDS011;48284;46.828;29.480;2022-09-03T01:55:55;1.27;;;1.00;;
62289;SDS011;48284;46.828;29.480;2022-09-03T01:58:36;1.65;;;1.00;;
62289;SDS011;48284;46.828;29.480;2022-09-03T02:01:12;2.42;;;1.15;;
62289;SDS011;48284;46.828;29.480;2022-09-03T02:03:46;1.42;;;0.90;;
62289;SDS011;48284;46.828;29.480;2022-09-03T02:06:16;2.10;;;0.95;;
62289;SDS011;48284;46.828;29.480;2022-09-03T02:08:46;1.50;;;1.02;;
62289;SDS011;48284;46.828;29.480;2022-09-03T02:11:15;1.65;;;1.00;;
62289;SDS011;48284;46.828;29.480;2022-09-03T02:13:44;1.33;;;1.00;;
62289;SDS011;48284;46.828;29.480;2022-09-03T02:16:19;1.48;;;0.98;;
62289;SDS011;48284;46.828;29.480;2022-09-03T02:18:52;1.35;;;0.73;;
62289;SDS011;48284;46.828;29.480;2022-09-03T02:21:24;1.20;;;0.95;;
62289;SDS011;48284;46.828;29.480;2022-09-03T02:23:56;1.10;;;0.98;;
62289;SDS011;48284;46.828;29.480;2022-09-03T02:26:26;2.40;;;1.27;;
62289;SDS011;48284;46.828;29.480;2022-09-03T02:28:54;1.48;;;0.95;;
62289;SDS011;48284;46.828;29.480;2022-09-03T02:31:25;1.05;;;0.90;;
62289;SDS011;48284;46.828;29.480;2022-09-03T02:33:55;1.20;;;1.00;;
62289;SDS011;48284;46.828;29.480;2022-09-03T02:36:25;1.52;;;0.90;;
62289;SDS011;48284;46.828;29.480;2022-09-03T02:38:57;1.30;;;0.80;;
62289;SDS011;48284;46.828;29.480;2022-09-03T02:41:26;1.10;;;0.80;;
62289;SDS011;48284;46.828;29.480;2022-09-03T02:43:55;1.30;;;0.90;;
62289;SDS011;48284;46.828;29.480;2022-09-03T02:46:31;2.33;;;1.17;;
62289;SDS011;48284;46.828;29.480;2022-09-03T02:49:02;1.58;;;0.90;;
62289;SDS011;48284;46.828;29.480;2022-09-03T02:51:31;2.10;;;0.85;;
62289;SDS011;48284;46.828;29.480;2022-09-03T02:54:01;1.30;;;0.90;;
62289;SDS011;48284;46.828;29.480;2022-09-03T02:56:29;1.88;;;1.00;;
62289;SDS011;48284;46.828;29.480;2022-09-03T02:58:58;1.90;;;1.02;;
62289;SDS011;48284;46.828;29.480;2022-09-03T03:01:27;1.00;;;0.90;;
62289;SDS011;48284;46.828;29.480;2022-09-03T03:03:59;1.70;;;1.17;;
62289;SDS011;48284;46.828;29.480;2022-09-03T03:06:28;2.88;;;0.82;;
62289;SDS011;48284;46.828;29.480;2022-09-03T03:08:56;1.52;;;0.68;;
62289;SDS011;48284;46.828;29.480;2022-09-03T03:11:25;1.00;;;0.90;;
62289;SDS011;48284;46.828;29.480;2022-09-03T03:13:54;1.38;;;0.90;;
62289;SDS011;48284;46.828;29.480;2022-09-03T03:18:52;1.23;;;1.00;;
62289;SDS011;48284;46.828;29.480;2022-09-03T03:21:22;1.50;;;1.10;;
62289;SDS011;48284;46.828;29.480;2022-09-03T03:23:50;2.13;;;1.10;;
62289;SDS011;48284;46.828;29.480;2022-09-03T03:26:19;1.05;;;0.90;;
62289;SDS011;48284;46.828;29.480;2022-09-03T03:28:54;1.65;;;1.10;;
62289;SDS011;48284;46.828;29.480;2022-09-03T03:31:23;3.53;;;1.00;;
62289;SDS011;48284;46.828;29.480;2022-09-03T03:36:24;1.10;;;0.82;;
62289;SDS011;48284;46.828;29.480;2022-09-03T03:38:54;1.40;;;0.93;;
62289;SDS011;48284;46.828;29.480;2022-09-03T03:41:25;1.33;;;1.00;;
62289;SDS011;48284;46.828;29.480;2022-09-03T03:43:57;1.67;;;1.10;;
62289;SDS011;48284;46.828;29.480;2022-09-03T03:46:28;1.45;;;0.93;;
62289;SDS011;48284;46.828;29.480;2022-09-03T03:48:58;1.80;;;1.08;;
62289;SDS011;48284;46.828;29.480;2022-09-03T03:51:28;1.23;;;0.70;;
62289;SDS011;48284;46.828;29.480;2022-09-03T03:53:58;1.45;;;1.10;;
62289;SDS011;48284;46.828;29.480;2022-09-03T03:56:31;1.85;;;1.02;;
62289;SDS011;48284;46.828;29.480;2022-09-03T03:59:00;1.40;;;0.80;;
62289;SDS011;48284;46.828;29.480;2022-09-03T04:01:29;0.70;;;0.70;;
62289;SDS011;48284;46.828;29.480;2022-09-03T04:03:58;1.67;;;1.10;;
62289;SDS011;48284;46.828;29.480;2022-09-03T04:06:28;2.30;;;0.90;;
62289;SDS011;48284;46.828;29.480;2022-09-03T04:08:57;1.25;;;0.80;;
62289;SDS011;48284;46.828;29.480;2022-09-03T04:11:25;1.55;;;0.98;;
62289;SDS011;48284;46.828;29.480;2022-09-03T04:13:54;1.70;;;0.80;;
62289;SDS011;48284;46.828;29.480;2022-09-03T04:16:23;2.25;;;1.25;;
62289;SDS011;48284;46.828;29.480;2022-09-03T04:18:53;0.90;;;0.80;;
62289;SDS011;48284;46.828;29.480;2022-09-03T04:21:23;1.73;;;1.13;;
62289;SDS011;48284;46.828;29.480;2022-09-03T04:23:56;1.00;;;0.90;;
62289;SDS011;48284;46.828;29.480;2022-09-03T04:26:25;1.20;;;1.00;;
62289;SDS011;48284;46.828;29.480;2022-09-03T04:28:57;1.80;;;1.50;;
62289;SDS011;48284;46.828;29.480;2022-09-03T04:31:27;3.13;;;1.25;;
62289;SDS011;48284;46.828;29.480;2022-09-03T04:33:57;2.10;;;1.08;;
62289;SDS011;48284;46.828;29.480;2022-09-03T04:36:26;2.80;;;1.00;;
62289;SDS011;48284;46.828;29.480;2022-09-03T04:38:58;4.15;;;1.40;;
62289;SDS011;48284;46.828;29.480;2022-09-03T04:41:29;2.17;;;1.13;;
62289;SDS011;48284;46.828;29.480;2022-09-03T04:43:58;1.60;;;1.05;;
62289;SDS011;48284;46.828;29.480;2022-09-03T04:46:28;1.70;;;1.17;;
62289;SDS011;48284;46.828;29.480;2022-09-03T04:49:00;1.67;;;1.00;;
62289;SDS011;48284;46.828;29.480;2022-09-03T04:51:29;3.72;;;1.40;;
62289;SDS011;48284;46.828;29.480;2022-09-03T04:54:00;2.50;;;1.17;;
62289;SDS011;48284;46.828;29.480;2022-09-03T04:56:29;2.58;;;1.25;;
62289;SDS011;48284;46.828;29.480;2022-09-03T04:59:00;2.10;;;1.30;;
62289;SDS011;48284;46.828;29.480;2022-09-03T05:01:30;2.47;;;1.85;;
62289;SDS011;48284;46.828;29.480;2022-09-03T05:04:00;1.80;;;1.23;;
62289;SDS011;48284;46.828;29.480;2022-09-03T05:06:29;2.08;;;1.30;;
62289;SDS011;48284;46.828;29.480;2022-09-03T05:09:00;2.08;;;1.48;;
62289;SDS011;48284;46.828;29.480;2022-09-03T05:11:29;1.95;;;1.20;;
62289;SDS011;48284;46.828;29.480;2022-09-03T05:13:58;3.22;;;1.20;;
62289;SDS011;48284;46.828;29.480;2022-09-03T05:16:27;1.77;;;1.20;;
62289;SDS011;48284;46.828;29.480;2022-09-03T05:18:58;2.58;;;1.10;;
62289;SDS011;48284;46.828;29.480;2022-09-03T05:21:27;3.55;;;1.50;;
62289;SDS011;48284;46.828;29.480;2022-09-03T05:23:57;1.55;;;1.27;;
62289;SDS011;48284;46.828;29.480;2022-09-03T05:26:28;1.85;;;1.17;;
62289;SDS011;48284;46.828;29.480;2022-09-03T05:28:58;1.65;;;1.25;;
62289;SDS011;48284;46.828;29.480;2022-09-03T05:31:30;2.50;;;1.60;;
62289;SDS011;48284;46.828;29.480;2022-09-03T05:34:00;2.42;;;1.25;;
62289;SDS011;48284;46.828;29.480;2022-09-03T05:36:30;1.88;;;1.27;;
62289;SDS011;48284;46.828;29.480;2022-09-03T05:39:00;1.75;;;1.20;;
62289;SDS011;48284;46.828;29.480;2022-09-03T05:41:31;2.80;;;1.13;;
62289;SDS011;48284;46.828;29.480;2022-09-03T05:44:00;1.60;;;1.30;;
62289;SDS011;48284;46.828;29.480;2022-09-03T05:46:30;3.03;;;1.55;;
62289;SDS011;48284;46.828;29.480;2022-09-03T05:49:00;2.92;;;1.42;;
62289;SDS011;48284;46.828;29.480;2022-09-03T05:51:29;2.08;;;1.15;;
62289;SDS011;48284;46.828;29.480;2022-09-03T05:53:58;3.60;;;1.60;;
62289;SDS011;48284;46.828;29.480;2022-09-03T06:01:28;2.20;;;1.38;;
62289;SDS011;48284;46.828;29.480;2022-09-03T06:03:59;3.35;;;1.40;;
62289;SDS011;48284;46.828;29.480;2022-09-03T06:06:29;4.15;;;1.42;;
62289;SDS011;48284;46.828;29.480;2022-09-03T06:09:00;3.70;;;1.25;;
62289;SDS011;48284;46.828;29.480;2022-09-03T06:11:30;2.25;;;1.25;;
62289;SDS011;48284;46.828;29.480;2022-09-03T06:14:06;3.80;;;1.55;;
62289;SDS011;48284;46.828;29.480;2022-09-03T06:16:37;3.58;;;1.80;;
62289;SDS011;48284;46.828;29.480;2022-09-03T06:19:08;3.35;;;1.65;;
62289;SDS011;48284;46.828;29.480;2022-09-03T06:21:38;2.28;;;1.33;;
62289;SDS011;48284;46.828;29.480;2022-09-03T06:24:08;5.55;;;1.60;;
62289;SDS011;48284;46.828;29.480;2022-09-03T06:26:40;6.03;;;1.58;;
62289;SDS011;48284;46.828;29.480;2022-09-03T06:29:10;4.55;;;1.48;;
62289;SDS011;48284;46.828;29.480;2022-09-03T06:31:40;5.43;;;1.55;;
62289;SDS011;48284;46.828;29.480;2022-09-03T06:34:08;69.32;;;4.22;;
62289;SDS011;48284;46.828;29.480;2022-09-03T06:36:38;12.55;;;1.80;;
62289;SDS011;48284;46.828;29.480;2022-09-03T06:39:07;11.63;;;1.92;;
62289;SDS011;48284;46.828;29.480;2022-09-03T06:41:36;9.40;;;1.90;;
62289;SDS011;48284;46.828;29.480;2022-09-03T06:44:06;8.73;;;1.58;;
62289;SDS011;48284;46.828;29.480;2022-09-03T06:46:39;4.78;;;2.00;;
62289;SDS011;48284;46.828;29.480;2022-09-03T06:49:09;8.88;;;1.90;;
62289;SDS011;48284;46.828;29.480;2022-09-03T06:51:38;17.80;;;2.38;;
62289;SDS011;48284;46.828;29.480;2022-09-03T06:54:09;12.65;;;2.80;;
62289;SDS011;48284;46.828;29.480;2022-09-03T06:56:39;12.55;;;2.38;;
62289;SDS011;48284;46.828;29.480;2022-09-03T06:59:08;11.73;;;2.08;;
62289;SDS011;48284;46.828;29.480;2022-09-03T07:01:40;16.33;;;2.00;;
62289;SDS011;48284;46.828;29.480;2022-09-03T07:04:12;8.95;;;1.90;;
62289;SDS011;48284;46.828;29.480;2022-09-03T07:06:45;7.15;;;1.65;;
62289;SDS011;48284;46.828;29.480;2022-09-03T07:09:14;4.57;;;1.90;;
62289;SDS011;48284;46.828;29.480;2022-09-03T07:11:45;7.05;;;1.55;;
62289;SDS011;48284;46.828;29.480;2022-09-03T07:14:15;3.05;;;1.80;;
62289;SDS011;48284;46.828;29.480;2022-09-03T07:16:46;4.65;;;1.73;;
62289;SDS011;48284;46.828;29.480;2022-09-03T07:19:16;9.20;;;1.65;;
62289;SDS011;48284;46.828;29.480;2022-09-03T07:24:16;3.97;;;1.60;;
62289;SDS011;48284;46.828;29.480;2022-09-03T07:26:48;4.03;;;1.83;;
62289;SDS011;48284;46.828;29.480;2022-09-03T07:29:17;4.60;;;2.03;;
62289;SDS011;48284;46.828;29.480;2022-09-03T07:31:49;4.28;;;1.95;;
62289;SDS011;48284;46.828;29.480;2022-09-03T07:34:19;5.03;;;1.90;;
62289;SDS011;48284;46.828;29.480;2022-09-03T07:36:52;3.50;;;1.90;;
62289;SDS011;48284;46.828;29.480;2022-09-03T07:39:21;8.93;;;2.28;;
62289;SDS011;48284;46.828;29.480;2022-09-03T07:41:50;6.53;;;1.92;;
62289;SDS011;48284;46.828;29.480;2022-09-03T07:44:19;6.75;;;1.90;;
62289;SDS011;48284;46.828;29.480;2022-09-03T07:46:51;3.88;;;1.98;;
62289;SDS011;48284;46.828;29.480;2022-09-03T07:49:20;5.03;;;2.53;;
62289;SDS011;48284;46.828;29.480;2022-09-03T07:51:48;3.80;;;1.90;;
62289;SDS011;48284;46.828;29.480;2022-09-03T07:54:20;8.45;;;2.75;;
62289;SDS011;48284;46.828;29.480;2022-09-03T07:56:49;10.95;;;3.00;;
62289;SDS011;48284;46.828;29.480;2022-09-03T07:59:18;5.00;;;2.20;;
62289;SDS011;48284;46.828;29.480;2022-09-03T08:01:48;4.00;;;2.20;;
62289;SDS011;48284;46.828;29.480;2022-09-03T08:06:48;7.80;;;2.20;;
62289;SDS011;48284;46.828;29.480;2022-09-03T08:09:21;6.32;;;2.30;;
62289;SDS011;48284;46.828;29.480;2022-09-03T08:11:50;8.35;;;2.28;;
62289;SDS011;48284;46.828;29.480;2022-09-03T08:14:19;9.52;;;2.50;;
62289;SDS011;48284;46.828;29.480;2022-09-03T08:16:47;13.60;;;2.75;;
62289;SDS011;48284;46.828;29.480;2022-09-03T08:19:16;8.20;;;2.55;;
62289;SDS011;48284;46.828;29.480;2022-09-03T08:21:47;19.15;;;3.75;;
62289;SDS011;48284;46.828;29.480;2022-09-03T08:24:16;9.70;;;2.70;;
62289;SDS011;48284;46.828;29.480;2022-09-03T08:26:46;5.80;;;2.95;;
62289;SDS011;48284;46.828;29.480;2022-09-03T08:29:18;12.90;;;2.65;;
62289;SDS011;48284;46.828;29.480;2022-09-03T08:31:47;9.82;;;2.45;;
62289;SDS011;48284;46.828;29.480;2022-09-03T08:34:16;9.88;;;2.75;;
62289;SDS011;48284;46.828;29.480;2022-09-03T08:36:46;7.25;;;2.42;;
62289;SDS011;48284;46.828;29.480;2022-09-03T08:39:16;7.13;;;2.67;;
62289;SDS011;48284;46.828;29.480;2022-09-03T08:44:45;6.50;;;2.70;;
62289;SDS011;48284;46.828;29.480;2022-09-03T08:47:17;8.55;;;2.92;;
62289;SDS011;48284;46.828;29.480;2022-09-03T08:49:50;6.22;;;2.70;;
62289;SDS011;48284;46.828;29.480;2022-09-03T08:52:25;5.05;;;2.67;;
62289;SDS011;48284;46.828;29.480;2022-09-03T08:55:00;11.40;;;3.03;;
62289;SDS011;48284;46.828;29.480;2022-09-03T08:57:39;8.38;;;2.75;;
62289;SDS011;48284;46.828;29.480;2022-09-03T09:00:13;6.95;;;2.88;;
62289;SDS011;48284;46.828;29.480;2022-09-03T09:02:45;7.80;;;2.63;;
62289;SDS011;48284;46.828;29.480;2022-09-03T09:05:23;3.53;;;2.50;;
62289;SDS011;48284;46.828;29.480;2022-09-03T09:08:01;8.18;;;2.67;;
62289;SDS011;48284;46.828;29.480;2022-09-03T09:10:40;9.40;;;2.90;;
62289;SDS011;48284;46.828;29.480;2022-09-03T09:13:16;6.10;;;2.92;;
62289;SDS011;48284;46.828;29.480;2022-09-03T09:15:53;4.55;;;2.40;;
62289;SDS011;48284;46.828;29.480;2022-09-03T09:18:36;9.20;;;2.92;;
62289;SDS011;48284;46.828;29.480;2022-09-03T09:21:19;6.80;;;2.88;;
62289;SDS011;48284;46.828;29.480;2022-09-03T09:23:56;4.57;;;2.10;;
62289;SDS011;48284;46.828;29.480;2022-09-03T09:26:28;5.47;;;2.47;;
62289;SDS011;48284;46.828;29.480;2022-09-03T09:28:59;4.72;;;2.53;;
62289;SDS011;48284;46.828;29.480;2022-09-03T09:31:36;3.45;;;2.13;;
62289;SDS011;48284;46.828;29.480;2022-09-03T09:34:06;4.20;;;2.30;;
62289;SDS011;48284;46.828;29.480;2022-09-03T09:36:36;4.90;;;2.22;;
62289;SDS011;48284;46.828;29.480;2022-09-03T09:39:13;5.70;;;2.75;;
62289;SDS011;48284;46.828;29.480;2022-09-03T09:41:42;4.43;;;2.50;;
62289;SDS011;48284;46.828;29.480;2022-09-03T09:44:24;7.13;;;2.67;;
62289;SDS011;48284;46.828;29.480;2022-09-03T09:47:00;4.18;;;2.55;;
62289;SDS011;48284;46.828;29.480;2022-09-03T09:49:34;6.20;;;2.30;;
62289;SDS011;48284;46.828;29.480;2022-09-03T09:52:06;6.13;;;1.98;;
62289;SDS011;48284;46.828;29.480;2022-09-03T09:54:39;4.47;;;2.47;;
62289;SDS011;48284;46.828;29.480;2022-09-03T09:57:13;4.55;;;2.15;;
62289;SDS011;48284;46.828;29.480;2022-09-03T09:59:44;4.03;;;2.30;;
62289;SDS011;48284;46.828;29.480;2022-09-03T10:02:14;2.75;;;2.22;;
62289;SDS011;48284;46.828;29.480;2022-09-03T10:04:53;4.25;;;2.25;;
62289;SDS011;48284;46.828;29.480;2022-09-03T10:07:29;4.32;;;2.20;;
62289;SDS011;48284;46.828;29.480;2022-09-03T10:10:01;4.43;;;2.33;;
62289;SDS011;48284;46.828;29.480;2022-09-03T10:12:34;2.97;;;2.20;;
62289;SDS011;48284;46.828;29.480;2022-09-03T10:15:14;4.22;;;2.38;;
62289;SDS011;48284;46.828;29.480;2022-09-03T10:18:01;5.40;;;1.98;;
62289;SDS011;48284;46.828;29.480;2022-09-03T10:20:35;3.58;;;2.08;;
62289;SDS011;48284;46.828;29.480;2022-09-03T10:23:12;3.55;;;2.15;;
62289;SDS011;48284;46.828;29.480;2022-09-03T10:25:51;4.97;;;2.38;;
62289;SDS011;48284;46.828;29.480;2022-09-03T10:28:30;2.95;;;2.20;;
62289;SDS011;48284;46.828;29.480;2022-09-03T10:31:09;8.23;;;3.08;;
62289;SDS011;48284;46.828;29.480;2022-09-03T10:33:46;4.25;;;2.60;;
62289;SDS011;48284;46.828;29.480;2022-09-03T10:36:21;6.90;;;2.65;;
62289;SDS011;48284;46.828;29.480;2022-09-03T10:38:52;4.72;;;2.20;;
62289;SDS011;48284;46.828;29.480;2022-09-03T10:41:31;6.72;;;2.50;;
62289;SDS011;48284;46.828;29.480;2022-09-03T10:44:31;4.30;;;2.63;;
62289;SDS011;48284;46.828;29.480;2022-09-03T10:47:25;4.18;;;2.33;;
62289;SDS011;48284;46.828;29.480;2022-09-03T10:50:07;5.18;;;2.22;;
62289;SDS011;48284;46.828;29.480;2022-09-03T10:52:46;4.40;;;2.50;;
62289;SDS011;48284;46.828;29.480;2022-09-03T10:55:34;3.90;;;2.47;;
62289;SDS011;48284;46.828;29.480;2022-09-03T10:58:36;4.75;;;3.05;;
62289;SDS011;48284;46.828;29.480;2022-09-03T11:01:17;7.35;;;3.20;;
62289;SDS011;48284;46.828;29.480;2022-09-03T11:03:55;5.43;;;3.15;;
62289;SDS011;48284;46.828;29.480;2022-09-03T11:06:42;3.20;;;2.88;;
62289;SDS011;48284;46.828;29.480;2022-09-03T11:09:19;4.10;;;2.60;;
62289;SDS011;48284;46.828;29.480;2022-09-03T11:11:54;5.95;;;3.25;;
62289;SDS011;48284;46.828;29.480;2022-09-03T11:14:33;6.10;;;2.83;;
62289;SDS011;48284;46.828;29.480;2022-09-03T11:17:06;5.15;;;2.88;;
62289;SDS011;48284;46.828;29.480;2022-09-03T11:19:40;4.50;;;2.95;;
62289;SDS011;48284;46.828;29.480;2022-09-03T11:22:17;5.43;;;2.60;;
62289;SDS011;48284;46.828;29.480;2022-09-03T11:24:50;8.10;;;3.15;;
62289;SDS011;48284;46.828;29.480;2022-09-03T11:27:29;4.60;;;2.90;;
62289;SDS011;48284;46.828;29.480;2022-09-03T11:30:06;5.15;;;3.40;;
62289;SDS011;48284;46.828;29.480;2022-09-03T11:32:43;5.50;;;2.50;;
62289;SDS011;48284;46.828;29.480;2022-09-03T11:35:25;4.47;;;2.83;;
62289;SDS011;48284;46.828;29.480;2022-09-03T11:37:57;5.95;;;2.17;;
62289;SDS011;48284;46.828;29.480;2022-09-03T11:40:28;5.18;;;2.97;;
62289;SDS011;48284;46.828;29.480;2022-09-03T11:43:04;3.38;;;2.58;;
62289;SDS011;48284;46.828;29.480;2022-09-03T11:45:38;5.93;;;2.70;;
62289;SDS011;48284;46.828;29.480;2022-09-03T11:48:29;5.95;;;2.65;;
62289;SDS011;48284;46.828;29.480;2022-09-03T11:51:01;4.40;;;2.50;;
62289;SDS011;48284;46.828;29.480;2022-09-03T11:53:33;3.72;;;2.60;;
62289;SDS011;48284;46.828;29.480;2022-09-03T11:56:16;3.63;;;2.53;;
62289;SDS011;48284;46.828;29.480;2022-09-03T11:58:46;3.85;;;2.50;;
62289;SDS011;48284;46.828;29.480;2022-09-03T12:01:27;5.28;;;2.72;;
62289;SDS011;48284;46.828;29.480;2022-09-03T12:03:57;5.15;;;2.70;;
62289;SDS011;48284;46.828;29.480;2022-09-03T12:06:48;5.13;;;2.78;;
62289;SDS011;48284;46.828;29.480;2022-09-03T12:09:45;4.53;;;2.83;;
62289;SDS011;48284;46.828;29.480;2022-09-03T12:12:30;5.03;;;2.45;;
62289;SDS011;48284;46.828;29.480;2022-09-03T12:15:14;4.27;;;2.70;;
62289;SDS011;48284;46.828;29.480;2022-09-03T12:17:55;3.67;;;2.35;;
62289;SDS011;48284;46.828;29.480;2022-09-03T12:20:41;4.03;;;2.67;;
62289;SDS011;48284;46.828;29.480;2022-09-03T12:23:10;3.72;;;2.17;;
62289;SDS011;48284;46.828;29.480;2022-09-03T12:25:43;5.88;;;2.90;;
62289;SDS011;48284;46.828;29.480;2022-09-03T12:28:15;3.80;;;2.33;;
62289;SDS011;48284;46.828;29.480;2022-09-03T12:30:49;3.78;;;2.33;;
62289;SDS011;48284;46.828;29.480;2022-09-03T12:33:21;5.82;;;2.92;;
62289;SDS011;48284;46.828;29.480;2022-09-03T12:35:56;5.43;;;2.33;;
62289;SDS011;48284;46.828;29.480;2022-09-03T12:38:27;6.20;;;2.60;;
62289;SDS011;48284;46.828;29.480;2022-09-03T12:41:23;5.68;;;2.53;;
62289;SDS011;48284;46.828;29.480;2022-09-03T12:43:54;6.20;;;2.28;;
62289;SDS011;48284;46.828;29.480;2022-09-03T12:46:26;6.22;;;2.95;;
62289;SDS011;48284;46.828;29.480;2022-09-03T12:49:02;5.43;;;2.40;;
62289;SDS011;48284;46.828;29.480;2022-09-03T12:51:57;4.15;;;2.45;;
62289;SDS011;48284;46.828;29.480;2022-09-03T12:54:32;6.10;;;2.70;;
62289;SDS011;48284;46.828;29.480;2022-09-03T12:57:02;4.47;;;2.60;;
62289;SDS011;48284;46.828;29.480;2022-09-03T12:59:32;4.07;;;2.60;;
62289;SDS011;48284;46.828;29.480;2022-09-03T13:02:05;4.25;;;2.65;;
62289;SDS011;48284;46.828;29.480;2022-09-03T13:04:43;5.53;;;2.70;;
62289;SDS011;48284;46.828;29.480;2022-09-03T13:07:20;4.47;;;2.45;;
62289;SDS011;48284;46.828;29.480;2022-09-03T13:09:54;6.05;;;2.63;;
62289;SDS011;48284;46.828;29.480;2022-09-03T13:12:31;5.35;;;2.50;;
62289;SDS011;48284;46.828;29.480;2022-09-03T13:15:05;5.57;;;2.60;;
62289;SDS011;48284;46.828;29.480;2022-09-03T13:17:41;5.35;;;2.58;;
62289;SDS011;48284;46.828;29.480;2022-09-03T13:20:32;6.35;;;2.78;;
62289;SDS011;48284;46.828;29.480;2022-09-03T13:23:15;6.22;;;3.00;;
62289;SDS011;48284;46.828;29.480;2022-09-03T13:25:56;4.50;;;2.72;;
62289;SDS011;48284;46.828;29.480;2022-09-03T13:28:42;5.82;;;3.08;;
62289;SDS011;48284;46.828;29.480;2022-09-03T13:31:25;4.80;;;2.53;;
62289;SDS011;48284;46.828;29.480;2022-09-03T13:34:00;5.35;;;2.90;;
62289;SDS011;48284;46.828;29.480;2022-09-03T13:36:36;5.72;;;2.80;;
62289;SDS011;48284;46.828;29.480;2022-09-03T13:39:16;4.65;;;2.47;;
62289;SDS011;48284;46.828;29.480;2022-09-03T13:41:53;3.92;;;2.70;;
62289;SDS011;48284;46.828;29.480;2022-09-03T13:44:34;4.10;;;2.60;;
62289;SDS011;48284;46.828;29.480;2022-09-03T13:47:11;2.47;;;2.22;;
62289;SDS011;48284;46.828;29.480;2022-09-03T13:49:54;5.60;;;2.30;;
62289;SDS011;48284;46.828;29.480;2022-09-03T13:52:49;5.28;;;2.72;;
62289;SDS011;48284;46.828;29.480;2022-09-03T13:55:26;4.82;;;2.80;;
62289;SDS011;48284;46.828;29.480;2022-09-03T13:58:02;5.28;;;2.58;;
62289;SDS011;48284;46.828;29.480;2022-09-03T14:00:36;5.25;;;2.80;;
62289;SDS011;48284;46.828;29.480;2022-09-03T14:03:10;7.72;;;3.08;;
62289;SDS011;48284;46.828;29.480;2022-09-03T14:05:47;5.00;;;2.55;;
62289;SDS011;48284;46.828;29.480;2022-09-03T14:08:29;4.82;;;3.00;;
62289;SDS011;48284;46.828;29.480;2022-09-03T14:11:19;4.38;;;2.83;;
62289;SDS011;48284;46.828;29.480;2022-09-03T14:14:01;4.78;;;2.60;;
62289;SDS011;48284;46.828;29.480;2022-09-03T14:16:41;4.72;;;2.50;;
62289;SDS011;48284;46.828;29.480;2022-09-03T14:19:18;5.68;;;2.55;;
62289;SDS011;48284;46.828;29.480;2022-09-03T14:21:55;4.75;;;2.53;;
62289;SDS011;48284;46.828;29.480;2022-09-03T14:24:33;5.72;;;2.65;;
62289;SDS011;48284;46.828;29.480;2022-09-03T14:27:11;6.32;;;2.90;;
62289;SDS011;48284;46.828;29.480;2022-09-03T14:29:48;3.67;;;2.28;;
62289;SDS011;48284;46.828;29.480;2022-09-03T14:32:26;3.40;;;2.30;;
62289;SDS011;48284;46.828;29.480;2022-09-03T14:35:01;3.88;;;2.75;;
62289;SDS011;48284;46.828;29.480;2022-09-03T14:37:47;3.63;;;2.22;;
62289;SDS011;48284;46.828;29.480;2022-09-03T14:40:41;3.47;;;2.22;;
62289;SDS011;48284;46.828;29.480;2022-09-03T14:43:25;7.88;;;2.95;;
62289;SDS011;48284;46.828;29.480;2022-09-03T14:49:05;5.93;;;2.60;;
62289;SDS011;48284;46.828;29.480;2022-09-03T14:51:46;7.72;;;2.58;;
62289;SDS011;48284;46.828;29.480;2022-09-03T14:54:29;4.75;;;2.20;;
62289;SDS011;48284;46.828;29.480;2022-09-03T14:57:24;5.45;;;2.75;;
62289;SDS011;48284;46.828;29.480;2022-09-03T15:00:13;5.90;;;2.40;;
62289;SDS011;48284;46.828;29.480;2022-09-03T15:05:42;3.17;;;2.50;;
62289;SDS011;48284;46.828;29.480;2022-09-03T15:11:22;3.85;;;2.28;;
62289;SDS011;48284;46.828;29.480;2022-09-03T15:13:59;4.10;;;2.28;;
62289;SDS011;48284;46.828;29.480;2022-09-03T15:16:42;3.30;;;2.00;;
62289;SDS011;48284;46.828;29.480;2022-09-03T15:19:27;6.18;;;2.30;;
62289;SDS011;48284;46.828;29.480;2022-09-03T15:22:11;4.15;;;2.38;;
62289;SDS011;48284;46.828;29.480;2022-09-03T15:24:50;6.82;;;2.33;;
62289;SDS011;48284;46.828;29.480;2022-09-03T15:27:31;5.40;;;1.83;;
62289;SDS011;48284;46.828;29.480;2022-09-03T15:30:13;3.55;;;1.80;;
62289;SDS011;48284;46.828;29.480;2022-09-03T15:32:48;3.50;;;2.38;;
62289;SDS011;48284;46.828;29.480;2022-09-03T15:35:36;6.07;;;2.20;;
62289;SDS011;48284;46.828;29.480;2022-09-03T15:38:18;5.28;;;2.55;;
62289;SDS011;48284;46.828;29.480;2022-09-03T15:40:57;6.03;;;2.40;;
62289;SDS011;48284;46.828;29.480;2022-09-03T15:43:32;8.68;;;2.13;;
62289;SDS011;48284;46.828;29.480;2022-09-03T15:48:43;5.35;;;2.03;;
62289;SDS011;48284;46.828;29.480;2022-09-03T15:51:17;3.53;;;1.90;;
62289;SDS011;48284;46.828;29.480;2022-09-03T15:53:53;9.93;;;2.33;;
62289;SDS011;48284;46.828;29.480;2022-09-03T15:56:30;8.63;;;2.40;;